Time;durP1;ratioP1;P1;durP2;ratioP2;P2;SDS_P1;SDS_P2;PMS_P1;PMS_P2;Temp;Humidity;BMP_temperature;BMP_pressure;BME280_temperature;BME280_humidity;BME280_pressure;Samples;Min_cycle;Max_cycle;Signal;HPM_P1;HPM_P2
2021/08/18 00:01:24;;;;;;;3.75;2.90;;;18.70;67.40;;;;;;5102795;28;20024;-78
2021/08/18 00:03:50;;;;;;;3.22;2.92;;;18.80;67.60;;;;;;5088383;28;20028;-78
2021/08/18 00:06:17;;;;;;;3.65;3.00;;;18.70;67.50;;;;;;5087929;28;20024;-78
2021/08/18 00:08:45;;;;;;;3.55;3.08;;;18.70;67.60;;;;;;5096842;28;20515;-79
2021/08/18 00:11:11;;;;;;;3.53;3.22;;;18.80;67.80;;;;;;5110034;28;20099;-78
2021/08/18 00:13:37;;;;;;;3.13;2.85;;;18.70;67.60;;;;;;5102726;28;20036;-78
2021/08/18 00:16:04;;;;;;;3.50;3.00;;;18.70;67.60;;;;;;5089745;28;20031;-78
2021/08/18 00:18:30;;;;;;;3.08;2.88;;;18.70;67.70;;;;;;5092737;28;20432;-79
2021/08/18 00:20:56;;;;;;;3.38;3.08;;;18.70;67.70;;;;;;5110391;28;20102;-78
2021/08/18 00:23:22;;;;;;;3.40;3.10;;;18.70;67.70;;;;;;5105174;28;20186;-79
2021/08/18 00:25:48;;;;;;;3.45;3.15;;;18.80;67.90;;;;;;5071316;28;20391;-78
2021/08/18 00:28:14;;;;;;;3.28;2.97;;;18.70;67.80;;;;;;5091860;28;20028;-79
2021/08/18 00:30:40;;;;;;;3.63;3.22;;;18.70;67.80;;;;;;5107988;28;20047;-79
2021/08/18 00:33:07;;;;;;;4.00;3.35;;;18.70;67.80;;;;;;5088344;28;20960;-78
2021/08/18 00:35:33;;;;;;;4.13;3.22;;;18.70;67.90;;;;;;5087761;28;20035;-78
2021/08/18 00:37:59;;;;;;;3.97;3.58;;;18.70;67.90;;;;;;5088846;28;20433;-79
2021/08/18 00:40:25;;;;;;;3.95;3.40;;;18.70;67.90;;;;;;5108583;28;20034;-78
2021/08/18 00:42:52;;;;;;;3.58;3.28;;;18.70;68.00;;;;;;5108608;28;20035;-79
2021/08/18 00:45:20;;;;;;;3.67;3.38;;;18.70;68.00;;;;;;5088759;28;20035;-79
2021/08/18 00:47:48;;;;;;;4.03;3.70;;;18.70;68.10;;;;;;5088151;28;20043;-79
2021/08/18 00:50:19;;;;;;;3.13;2.83;;;18.70;68.10;;;;;;5108537;28;20023;-80
2021/08/18 00:52:46;;;;;;;5.72;3.95;;;18.70;68.10;;;;;;5109401;28;20130;-80
2021/08/18 00:55:14;;;;;;;3.50;3.20;;;18.70;68.10;;;;;;5108081;28;20059;-79
2021/08/18 00:57:41;;;;;;;4.00;3.60;;;18.70;68.20;;;;;;5107743;28;20024;-80
2021/08/18 01:00:09;;;;;;;3.97;3.63;;;18.70;68.20;;;;;;5109045;28;20486;-80
2021/08/18 01:02:36;;;;;;;3.88;3.50;;;18.70;68.20;;;;;;5092734;28;20043;-80
2021/08/18 01:05:08;;;;;;;4.65;3.60;;;18.70;68.30;;;;;;5081411;28;20119;-80
2021/08/18 01:07:35;;;;;;;4.93;3.05;;;18.70;68.80;;;;;;5067089;28;20024;-80
2021/08/18 01:10:07;;;;;;;3.65;3.30;;;18.70;68.30;;;;;;5085585;28;20509;-79
2021/08/18 01:12:35;;;;;;;3.92;3.53;;;18.70;68.40;;;;;;5087673;28;20501;-79
2021/08/18 01:15:03;;;;;;;3.30;3.00;;;18.70;68.40;;;;;;5106051;28;20073;-78
2021/08/18 01:17:32;;;;;;;4.82;3.38;;;18.60;68.20;;;;;;5109209;28;20482;-79
2021/08/18 01:20:01;;;;;;;3.60;3.25;;;18.60;68.20;;;;;;5090396;28;20093;-78
2021/08/18 01:22:28;;;;;;;3.15;2.88;;;18.60;68.20;;;;;;5070071;28;20497;-78
2021/08/18 01:24:54;;;;;;;3.72;3.33;;;18.60;68.30;;;;;;5104989;28;20038;-78
2021/08/18 01:27:21;;;;;;;3.85;3.30;;;18.60;68.30;;;;;;5108710;28;20123;-79
2021/08/18 01:29:47;;;;;;;3.42;3.13;;;18.70;68.50;;;;;;5093646;28;20043;-79
2021/08/18 01:32:13;;;;;;;3.92;2.88;;;18.70;68.50;;;;;;5081934;28;20036;-79
2021/08/18 01:34:38;;;;;;;3.50;2.80;;;18.70;68.50;;;;;;5085258;28;20510;-78
2021/08/18 01:37:05;;;;;;;3.22;2.92;;;18.70;68.50;;;;;;5069465;28;20074;-79
2021/08/18 01:39:31;;;;;;;2.70;2.50;;;18.70;68.60;;;;;;5094515;28;20036;-79
2021/08/18 01:41:57;;;;;;;3.00;2.72;;;18.70;68.60;;;;;;5088979;28;20016;-78
2021/08/18 01:44:23;;;;;;;3.20;2.90;;;18.60;68.40;;;;;;5071735;28;20038;-79
2021/08/18 01:46:49;;;;;;;3.00;2.72;;;18.60;68.50;;;;;;5080915;28;20032;-79
2021/08/18 01:49:16;;;;;;;3.47;3.00;;;18.60;68.50;;;;;;5082867;28;20068;-79
2021/08/18 01:51:42;;;;;;;4.10;2.92;;;18.60;68.50;;;;;;5089745;28;20074;-79
2021/08/18 01:54:08;;;;;;;3.28;2.97;;;18.60;68.50;;;;;;5076429;28;20028;-79
2021/08/18 01:56:34;;;;;;;2.60;2.40;;;18.60;68.50;;;;;;5072275;28;20433;-79
2021/08/18 01:59:00;;;;;;;3.00;2.60;;;18.60;68.60;;;;;;5072515;28;20056;-79
2021/08/18 02:01:25;;;;;;;2.72;2.53;;;18.60;68.60;;;;;;5077924;28;20085;-78
2021/08/18 02:03:51;;;;;;;3.10;2.90;;;18.60;68.70;;;;;;5091211;28;20070;-79
2021/08/18 02:06:18;;;;;;;2.58;2.38;;;18.60;68.70;;;;;;5091994;28;20032;-78
2021/08/18 02:08:44;;;;;;;2.92;2.60;;;18.60;68.70;;;;;;5091087;28;20059;-79
2021/08/18 02:11:10;;;;;;;3.15;2.90;;;18.60;68.70;;;;;;5092175;28;20519;-79
2021/08/18 02:13:37;;;;;;;2.88;2.63;;;18.60;68.70;;;;;;5092083;28;20513;-79
2021/08/18 02:16:04;;;;;;;2.95;2.45;;;18.60;68.80;;;;;;5092154;28;20437;-78
2021/08/18 02:18:31;;;;;;;2.65;2.45;;;18.60;68.80;;;;;;5090758;28;20390;-78
2021/08/18 02:20:57;;;;;;;4.13;3.00;;;18.60;68.80;;;;;;5092082;28;20032;-78
2021/08/18 02:23:23;;;;;;;3.10;2.80;;;18.60;68.80;;;;;;5092000;28;20031;-78
2021/08/18 02:25:50;;;;;;;4.13;3.00;;;18.60;68.90;;;;;;5092333;28;20031;-77
2021/08/18 02:28:16;;;;;;;3.30;3.00;;;18.60;68.90;;;;;;5092292;28;20097;-77
2021/08/18 02:30:42;;;;;;;3.60;3.03;;;18.60;68.90;;;;;;5091711;28;20024;-77
2021/08/18 02:33:09;;;;;;;3.63;2.85;;;18.60;69.00;;;;;;5091751;28;20040;-77
2021/08/18 02:35:35;;;;;;;4.55;3.60;;;18.60;69.00;;;;;;5091838;28;20020;-77
2021/08/18 02:38:03;;;;;;;4.97;3.60;;;18.60;69.00;;;;;;5090098;28;20085;-78
2021/08/18 02:40:30;;;;;;;3.85;3.03;;;18.60;69.00;;;;;;5091914;28;20032;-77
2021/08/18 02:42:57;;;;;;;3.58;3.22;;;18.60;69.00;;;;;;5091648;28;20120;-80
2021/08/18 02:45:25;;;;;;;4.20;3.33;;;18.60;69.10;;;;;;5091464;28;20107;-79
2021/08/18 02:47:51;;;;;;;4.85;3.50;;;18.60;69.10;;;;;;5091802;28;20027;-80
2021/08/18 02:50:20;;;;;;;4.07;3.63;;;18.60;69.10;;;;;;5090233;28;20047;-78
2021/08/18 02:52:46;;;;;;;5.13;3.55;;;18.60;69.10;;;;;;5073181;28;20097;-78
2021/08/18 02:55:12;;;;;;;6.55;4.00;;;18.60;69.20;;;;;;5091818;28;20073;-80
2021/08/18 02:57:38;;;;;;;4.68;4.20;;;18.60;69.20;;;;;;5090036;28;20036;-80
2021/08/18 03:00:06;;;;;;;5.45;4.43;;;18.60;69.20;;;;;;5073186;28;20036;-80
2021/08/18 03:02:32;;;;;;;4.68;4.15;;;18.60;69.20;;;;;;5090011;28;20423;-79
2021/08/18 03:04:58;;;;;;;4.80;3.97;;;18.60;69.30;;;;;;5089902;28;20020;-80
2021/08/18 03:07:24;;;;;;;6.20;3.97;;;18.60;69.30;;;;;;5089885;28;20032;-80
2021/08/18 03:09:50;;;;;;;5.07;4.43;;;18.60;69.30;;;;;;5089595;28;20387;-80
2021/08/18 03:12:16;;;;;;;9.02;5.07;;;18.60;69.30;;;;;;5091261;28;20036;-81
2021/08/18 03:14:42;;;;;;;8.73;4.28;;;18.60;69.30;;;;;;5073233;28;20028;-80
2021/08/18 03:17:08;;;;;;;5.82;4.68;;;18.60;69.30;;;;;;5090716;28;20047;-80
2021/08/18 03:19:34;;;;;;;5.47;4.85;;;18.60;69.40;;;;;;5091019;28;20487;-81
2021/08/18 03:21:59;;;;;;;6.18;5.57;;;18.60;69.40;;;;;;5089842;28;20028;-81
2021/08/18 03:24:25;;;;;;;5.72;4.55;;;18.60;69.40;;;;;;5090303;28;20105;-81
2021/08/18 03:26:52;;;;;;;5.82;4.85;;;18.60;69.40;;;;;;5091032;28;20024;-81
2021/08/18 03:29:18;;;;;;;5.75;5.13;;;18.60;69.40;;;;;;5090812;28;20514;-81
2021/08/18 03:31:45;;;;;;;5.32;4.30;;;18.60;69.50;;;;;;5090823;28;20032;-81
2021/08/18 03:34:11;;;;;;;5.43;4.93;;;18.60;69.50;;;;;;5090832;28;20032;-80
2021/08/18 03:36:36;;;;;;;5.78;5.15;;;18.60;69.50;;;;;;5090389;28;20078;-81
2021/08/18 03:39:03;;;;;;;6.53;4.97;;;18.60;69.60;;;;;;5090229;28;20032;-80
2021/08/18 03:41:29;;;;;;;5.85;5.25;;;18.60;69.60;;;;;;5091111;28;20501;-81
2021/08/18 03:43:55;;;;;;;8.13;5.38;;;18.60;69.60;;;;;;5072962;28;20051;-79
2021/08/18 03:46:21;;;;;;;6.65;5.47;;;18.60;69.60;;;;;;5089432;28;20437;-80
2021/08/18 03:48:47;;;;;;;6.43;5.47;;;18.60;69.70;;;;;;5090597;28;20024;-80
2021/08/18 03:51:12;;;;;;;6.15;5.55;;;18.60;69.70;;;;;;5089820;28;20031;-79
2021/08/18 03:53:39;;;;;;;6.85;5.38;;;18.60;69.70;;;;;;5090422;28;20116;-79
2021/08/18 03:56:04;;;;;;;6.82;5.13;;;18.50;69.60;;;;;;5091117;28;20024;-79
2021/08/18 03:58:30;;;;;;;5.70;5.13;;;18.50;69.60;;;;;;5090382;28;20032;-79
2021/08/18 04:00:56;;;;;;;5.97;5.38;;;18.50;69.60;;;;;;5090650;28;20024;-79
2021/08/18 04:03:22;;;;;;;6.75;5.57;;;18.60;69.80;;;;;;5090433;28;20043;-80
2021/08/18 04:05:48;;;;;;;5.25;4.75;;;18.50;69.60;;;;;;5089604;28;20056;-80
2021/08/18 04:08:14;;;;;;;7.22;5.30;;;18.50;69.70;;;;;;5090153;28;20145;-80
2021/08/18 04:10:40;;;;;;;5.13;4.63;;;18.50;69.70;;;;;;5089007;28;20414;-80
2021/08/18 04:13:06;;;;;;;6.80;5.10;;;18.50;69.70;;;;;;5090348;28;20044;-80
2021/08/18 04:15:40;;;;;;;6.40;5.25;;;18.50;69.70;;;;;;5090722;28;20032;-81
2021/08/18 04:18:08;;;;;;;5.10;4.53;;;18.50;69.80;;;;;;5090434;28;20028;-81
2021/08/18 04:20:34;;;;;;;5.13;4.63;;;18.50;69.80;;;;;;5089384;28;20030;-81
2021/08/18 04:23:01;;;;;;;5.55;5.05;;;18.50;69.80;;;;;;5090824;28;20032;-80
2021/08/18 04:25:27;;;;;;;5.43;4.93;;;18.50;69.80;;;;;;5090441;28;20105;-80
2021/08/18 04:27:54;;;;;;;6.03;4.97;;;18.50;69.80;;;;;;5090839;28;20491;-80
2021/08/18 04:30:21;;;;;;;7.28;5.32;;;18.50;69.80;;;;;;5088895;28;20502;-80
2021/08/18 04:32:47;;;;;;;5.75;5.22;;;18.50;69.90;;;;;;5088943;28;20123;-81
2021/08/18 04:35:14;;;;;;;4.68;4.28;;;18.50;69.90;;;;;;5090539;28;20020;-81
2021/08/18 04:37:40;;;;;;;5.45;4.95;;;18.50;69.90;;;;;;5090395;28;20071;-81
2021/08/18 04:40:09;;;;;;;5.47;4.97;;;18.50;69.90;;;;;;5090024;28;20059;-81
2021/08/18 04:42:41;;;;;;;5.60;4.90;;;18.50;70.00;;;;;;5089385;28;20031;-81
2021/08/18 04:45:09;;;;;;;5.53;4.03;;;18.50;70.00;;;;;;5088737;28;20094;-81
2021/08/18 04:47:36;;;;;;;5.20;4.70;;;18.50;70.00;;;;;;5066900;28;20090;-81
2021/08/18 04:50:04;;;;;;;4.63;4.22;;;18.50;70.10;;;;;;5074488;28;20038;-81
2021/08/18 04:52:30;;;;;;;5.20;4.70;;;18.50;70.10;;;;;;5077334;28;20078;-81
2021/08/18 04:54:56;;;;;;;5.03;4.63;;;18.50;70.10;;;;;;5080224;28;20044;-81
2021/08/18 04:57:22;;;;;;;4.65;4.22;;;18.50;70.10;;;;;;5079648;28;20024;-81
2021/08/18 04:59:48;;;;;;;5.55;5.00;;;18.50;70.10;;;;;;5090448;28;20119;-80
2021/08/18 05:02:15;;;;;;;4.78;4.07;;;18.50;70.20;;;;;;5089902;28;20711;-81
2021/08/18 05:04:41;;;;;;;5.78;4.63;;;18.40;70.00;;;;;;5083854;28;20115;-80
2021/08/18 05:07:07;;;;;;;5.40;4.35;;;18.50;70.20;;;;;;5067229;28;20033;-80
2021/08/18 05:09:33;;;;;;;5.32;4.80;;;18.50;70.20;;;;;;5086605;28;20474;-80
2021/08/18 05:11:59;;;;;;;4.75;4.35;;;18.50;70.20;;;;;;5087616;28;20344;-79
2021/08/18 05:14:25;;;;;;;5.10;4.60;;;18.50;70.30;;;;;;5089202;28;20078;-80
2021/08/18 05:16:51;;;;;;;4.43;4.03;;;18.50;70.30;;;;;;5082157;28;20107;-80
2021/08/18 05:19:17;;;;;;;5.43;4.20;;;18.50;70.30;;;;;;5087226;28;20032;-80
2021/08/18 05:21:44;;;;;;;4.18;3.88;;;18.50;70.30;;;;;;5088062;28;20707;-80
2021/08/18 05:24:10;;;;;;;4.50;4.10;;;18.50;70.30;;;;;;5087835;28;20600;-78
2021/08/18 05:26:36;;;;;;;5.28;4.07;;;18.50;70.40;;;;;;5088138;28;20059;-79
2021/08/18 05:29:02;;;;;;;5.65;4.22;;;18.50;70.40;;;;;;5101885;28;20074;-80
2021/08/18 05:31:28;;;;;;;4.93;4.30;;;18.50;70.40;;;;;;5102627;28;20035;-81
2021/08/18 05:33:54;;;;;;;5.35;4.43;;;18.50;70.40;;;;;;5086936;28;20090;-81
2021/08/18 05:36:19;;;;;;;5.35;4.40;;;18.50;70.40;;;;;;5088491;28;20445;-81
2021/08/18 05:38:45;;;;;;;4.40;4.00;;;18.50;70.40;;;;;;5087393;28;20032;-82
2021/08/18 05:41:11;;;;;;;4.80;4.35;;;18.50;70.40;;;;;;5087776;28;20035;-79
2021/08/18 05:43:38;;;;;;;5.38;3.85;;;18.50;70.40;;;;;;5087504;28;20081;-80
2021/08/18 05:46:04;;;;;;;4.97;4.45;;;18.60;70.60;;;;;;5075768;28;20282;-79
2021/08/18 05:48:30;;;;;;;5.00;4.60;;;18.60;70.60;;;;;;5073978;28;20025;-79
2021/08/18 05:50:57;;;;;;;5.10;4.57;;;18.60;70.60;;;;;;5066525;28;20048;-80
2021/08/18 05:53:24;;;;;;;5.05;4.45;;;18.60;70.60;;;;;;5080539;28;20498;-80
2021/08/18 05:55:51;;;;;;;5.90;5.20;;;18.60;70.60;;;;;;5088259;28;20066;-81
2021/08/18 05:58:17;;;;;;;5.32;4.50;;;18.60;70.60;;;;;;5085937;28;20036;-79
2021/08/18 06:00:44;;;;;;;6.05;5.05;;;18.70;70.70;;;;;;5087961;28;20031;-81
2021/08/18 06:03:10;;;;;;;5.22;4.70;;;18.70;70.70;;;;;;5071526;28;20112;-81
2021/08/18 06:05:36;;;;;;;5.80;5.03;;;18.70;70.70;;;;;;5083723;28;20504;-80
2021/08/18 06:08:04;;;;;;;7.07;5.43;;;18.70;70.70;;;;;;5082229;28;20024;-81
2021/08/18 06:10:30;;;;;;;4.97;4.43;;;18.70;70.70;;;;;;5086090;28;20774;-80
2021/08/18 06:12:56;;;;;;;4.80;4.40;;;18.70;70.70;;;;;;5087158;28;20127;-81
2021/08/18 06:15:22;;;;;;;5.20;4.75;;;18.70;70.70;;;;;;5087298;28;20287;-80
2021/08/18 06:17:48;;;;;;;5.95;5.35;;;18.80;70.80;;;;;;5087152;28;20246;-81
2021/08/18 06:20:17;;;;;;;5.43;4.93;;;18.90;71.00;;;;;;5086504;28;20028;-81
2021/08/18 06:22:45;;;;;;;6.25;4.93;;;18.90;70.90;;;;;;5075940;28;20031;-82
2021/08/18 06:25:11;;;;;;;6.40;5.80;;;18.90;70.90;;;;;;5085955;28;21274;-81
2021/08/18 06:27:37;;;;;;;6.63;5.90;;;19.00;71.00;;;;;;5091760;28;20040;-82
2021/08/18 06:30:04;;;;;;;8.02;5.65;;;19.00;70.90;;;;;;5085908;28;20031;-83
2021/08/18 06:32:30;;;;;;;5.95;5.35;;;19.10;71.10;;;;;;5092753;28;20043;-80
2021/08/18 06:34:56;;;;;;;7.00;6.30;;;19.10;71.00;;;;;;5107140;28;20043;-80
2021/08/18 06:37:22;;;;;;;6.45;5.85;;;19.10;71.00;;;;;;5089001;28;20057;-80
2021/08/18 06:39:49;;;;;;;6.28;5.72;;;19.10;71.10;;;;;;5086005;28;20157;-80
2021/08/18 06:42:15;;;;;;;7.82;7.07;;;19.20;71.30;;;;;;5089216;28;20123;-80
2021/08/18 06:44:42;;;;;;;9.45;6.18;;;19.20;71.30;;;;;;5089362;28;20545;-80
2021/08/18 06:47:08;;;;;;;6.93;6.20;;;19.30;72.00;;;;;;5107289;28;20110;-81
2021/08/18 06:49:34;;;;;;;7.38;6.68;;;19.30;71.40;;;;;;5086966;28;20108;-78
2021/08/18 06:52:01;;;;;;;7.10;6.43;;;19.30;71.40;;;;;;5080682;28;20384;-80
2021/08/18 06:54:27;;;;;;;8.65;7.47;;;19.30;71.40;;;;;;5086993;28;20082;-81
2021/08/18 06:56:54;;;;;;;9.55;8.55;;;19.40;71.50;;;;;;5087129;28;20024;-83
2021/08/18 06:59:20;;;;;;;9.55;7.25;;;19.40;71.40;;;;;;5080319;28;20368;-84
2021/08/18 07:01:46;;;;;;;8.25;7.55;;;19.40;71.30;;;;;;5080228;28;20111;-82
2021/08/18 07:04:13;;;;;;;10.55;9.45;;;19.50;71.40;;;;;;5065219;28;20335;-81
2021/08/18 07:06:39;;;;;;;9.98;8.43;;;19.50;71.40;;;;;;5080607;28;20040;-82
2021/08/18 07:09:05;;;;;;;10.60;9.55;;;19.60;71.60;;;;;;5100780;28;20479;-81
2021/08/18 07:11:31;;;;;;;10.73;9.57;;;19.70;71.70;;;;;;5084834;28;20052;-81
2021/08/18 07:13:59;;;;;;;10.60;9.60;;;19.70;71.60;;;;;;5084264;28;20043;-81
2021/08/18 07:16:29;;;;;;;10.57;9.57;;;19.80;71.70;;;;;;5090603;28;20032;-81
2021/08/18 07:18:56;;;;;;;11.00;9.77;;;19.90;71.70;;;;;;5076023;28;20043;-81
2021/08/18 07:21:22;;;;;;;11.27;10.27;;;20.00;71.70;;;;;;5075278;28;20024;-80
2021/08/18 07:23:50;;;;;;;13.43;12.07;;;20.10;71.70;;;;;;5076211;28;20024;-82
2021/08/18 07:26:16;;;;;;;13.38;11.85;;;20.30;71.90;;;;;;5078577;28;20039;-81
2021/08/18 07:28:42;;;;;;;13.57;12.18;;;20.50;72.00;;;;;;5059097;28;20528;-81
2021/08/18 07:31:09;;;;;;;14.27;12.85;;;20.70;72.10;;;;;;5068119;28;20043;-82
2021/08/18 07:33:35;;;;;;;14.05;12.60;;;20.90;72.00;;;;;;5086448;28;20036;-82
2021/08/18 07:36:01;;;;;;;13.15;11.95;;;21.00;71.70;;;;;;5039930;28;20030;-81
2021/08/18 07:38:27;;;;;;;13.85;12.48;;;21.20;71.80;;;;;;5061982;28;20041;-83
2021/08/18 07:40:53;;;;;;;15.07;12.93;;;21.40;72.60;;;;;;5078442;28;20523;-84
2021/08/18 07:43:19;;;;;;;16.10;13.77;;;21.60;71.80;;;;;;5067477;28;20035;-82
2021/08/18 07:45:45;;;;;;;12.68;11.48;;;21.80;71.60;;;;;;5077019;28;20032;-85
2021/08/18 07:48:11;;;;;;;13.77;12.48;;;21.90;71.30;;;;;;5084302;28;20089;-79
2021/08/18 07:50:37;;;;;;;13.10;11.77;;;22.10;71.30;;;;;;5080301;28;20032;-82
2021/08/18 07:53:03;;;;;;;13.57;11.95;;;22.10;71.00;;;;;;5090518;28;20126;-83
2021/08/18 07:55:29;;;;;;;12.82;11.63;;;22.20;70.90;;;;;;5105251;28;20123;-80
2021/08/18 07:57:55;;;;;;;12.13;10.95;;;22.20;70.70;;;;;;5104765;28;20061;-84
2021/08/18 08:00:22;;;;;;;14.50;11.98;;;22.20;70.60;;;;;;5097496;28;20024;-81
2021/08/18 08:02:48;;;;;;;10.80;9.70;;;22.20;70.60;;;;;;5074889;28;20479;-80
2021/08/18 08:05:16;;;;;;;11.35;10.20;;;22.20;70.60;;;;;;5085618;28;20035;-79
2021/08/18 08:07:43;;;;;;;11.48;10.27;;;22.20;70.60;;;;;;5085801;28;20077;-79
2021/08/18 08:10:11;;;;;;;10.27;8.95;;;22.20;70.50;;;;;;5084240;28;20102;-79
2021/08/18 08:12:37;;;;;;;10.98;9.98;;;22.30;70.70;;;;;;5085509;28;20131;-83
2021/08/18 08:15:05;;;;;;;11.13;9.15;;;22.40;70.60;;;;;;5085197;28;20032;-82
2021/08/18 08:17:31;;;;;;;9.48;8.57;;;22.40;70.50;;;;;;5086953;28;20024;-83
2021/08/18 08:19:57;;;;;;;11.98;8.75;;;22.40;70.40;;;;;;5104890;28;20032;-81
2021/08/18 08:22:23;;;;;;;9.23;8.32;;;22.50;70.50;;;;;;5104846;28;20082;-81
2021/08/18 08:24:49;;;;;;;9.13;7.90;;;22.60;70.50;;;;;;5089913;28;20498;-83
2021/08/18 08:27:15;;;;;;;8.77;7.68;;;22.60;70.40;;;;;;5089677;28;20059;-82
2021/08/18 08:29:41;;;;;;;7.57;6.85;;;22.60;70.30;;;;;;5108145;28;20444;-81
2021/08/18 08:32:08;;;;;;;7.50;6.80;;;22.70;70.40;;;;;;5097731;28;20064;-81
2021/08/18 08:34:34;;;;;;;9.05;7.43;;;22.80;70.40;;;;;;5085056;28;20814;-83
2021/08/18 08:37:00;;;;;;;8.75;6.10;;;22.80;70.40;;;;;;5077995;28;20024;-80
2021/08/18 08:39:26;;;;;;;7.90;6.38;;;22.80;70.20;;;;;;5084310;28;20043;-80
2021/08/18 08:41:52;;;;;;;7.25;5.47;;;22.90;70.30;;;;;;5089587;28;20020;-82
2021/08/18 08:44:21;;;;;;;6.43;5.82;;;22.90;70.20;;;;;;5066992;28;20073;-79
2021/08/18 08:46:49;;;;;;;7.25;5.47;;;23.00;70.20;;;;;;5079242;28;20028;-83
2021/08/18 08:49:20;;;;;;;5.95;5.38;;;23.00;70.10;;;;;;5086532;28;20052;-84
2021/08/18 08:51:47;;;;;;;4.70;4.28;;;23.10;70.80;;;;;;5071142;28;20035;-80
2021/08/18 08:54:15;;;;;;;6.25;4.70;;;23.00;69.80;;;;;;5089615;28;20040;-79
2021/08/18 08:56:41;;;;;;;6.18;3.85;;;23.00;69.60;;;;;;5089717;28;20406;-78
2021/08/18 08:59:07;;;;;;;6.70;4.63;;;23.10;69.60;;;;;;5103026;28;20039;-78
2021/08/18 09:02:03;;;;;;;7.47;4.03;;;23.10;69.50;;;;;;5082438;28;20044;-80
2021/08/18 09:04:33;;;;;;;5.15;3.22;;;23.10;69.20;;;;;;5068389;28;20029;-77
2021/08/18 09:07:07;;;;;;;4.93;3.13;;;23.10;69.00;;;;;;5067848;28;20032;-77
2021/08/18 09:09:35;;;;;;;5.95;2.78;;;23.10;68.80;;;;;;5101489;28;20046;-79
2021/08/18 09:12:04;;;;;;;5.63;2.75;;;23.00;68.60;;;;;;5102473;28;20028;-79
2021/08/18 09:14:30;;;;;;;2.60;2.40;;;23.00;68.30;;;;;;5079571;28;20031;-78
2021/08/18 09:16:56;;;;;;;4.60;2.65;;;23.00;68.30;;;;;;5079088;28;20127;-77
2021/08/18 09:19:30;;;;;;;5.70;2.95;;;22.90;68.10;;;;;;5079349;28;20119;-79
2021/08/18 09:22:05;;;;;;;3.97;2.53;;;23.00;68.10;;;;;;5086025;28;20530;-78
2021/08/18 09:24:31;;;;;;;5.22;3.00;;;22.90;67.90;;;;;;5068199;28;20119;-78
2021/08/18 09:27:08;;;;;;;4.95;2.85;;;22.90;67.80;;;;;;5068544;28;20115;-78
2021/08/18 09:29:36;;;;;;;5.95;3.17;;;22.90;67.80;;;;;;5086468;28;20127;-80
2021/08/18 09:32:32;;;;;;;6.32;3.03;;;22.90;67.70;;;;;;5070238;28;20036;-78
2021/08/18 09:35:03;;;;;;;6.25;3.15;;;22.90;67.60;;;;;;5102287;28;20031;-78
2021/08/18 09:37:31;;;;;;;6.72;3.28;;;22.90;67.70;;;;;;5108015;28;20027;-78
2021/08/18 09:39:58;;;;;;;5.07;3.20;;;22.80;67.50;;;;;;5086153;28;20028;-77
2021/08/18 09:42:32;;;;;;;6.03;3.25;;;22.90;67.70;;;;;;5069595;28;20194;-79
2021/08/18 09:45:27;;;;;;;5.53;3.65;;;22.90;67.70;;;;;;5086411;28;20042;-78
2021/08/18 09:48:06;;;;;;;6.90;3.05;;;23.00;67.60;;;;;;5085998;28;20031;-80
2021/08/18 09:50:41;;;;;;;5.15;2.95;;;23.00;67.40;;;;;;5106779;28;20035;-78
2021/08/18 09:53:17;;;;;;;5.25;2.92;;;23.00;67.30;;;;;;5097613;28;20040;-79
2021/08/18 09:55:51;;;;;;;4.45;2.78;;;23.00;67.20;;;;;;5086916;28;20051;-78
2021/08/18 09:58:29;;;;;;;4.28;2.17;;;23.10;67.10;;;;;;5094345;28;20555;-78
2021/08/18 10:00:58;;;;;;;3.45;2.30;;;23.20;67.10;;;;;;5106705;28;20028;-78
2021/08/18 10:03:25;;;;;;;5.45;2.53;;;23.30;67.00;;;;;;5069279;28;20066;-79
2021/08/18 10:05:53;;;;;;;4.28;2.17;;;23.40;67.00;;;;;;5086888;28;20028;-79
2021/08/18 10:08:20;;;;;;;3.42;2.03;;;23.50;67.00;;;;;;5063930;28;20024;-78
2021/08/18 10:10:46;;;;;;;3.78;2.15;;;23.50;66.60;;;;;;5066864;28;20124;-79
2021/08/18 10:13:13;;;;;;;4.57;2.42;;;23.70;66.80;;;;;;5087058;28;20134;-78
2021/08/18 10:15:39;;;;;;;3.13;1.98;;;23.80;66.60;;;;;;5100918;28;20024;-78
2021/08/18 10:18:07;;;;;;;6.45;2.40;;;23.90;66.40;;;;;;5089900;28;20916;-77
2021/08/18 10:20:35;;;;;;;3.60;1.85;;;24.00;66.80;;;;;;5088161;28;20032;-78
2021/08/18 10:23:06;;;;;;;4.45;2.00;;;24.20;66.90;;;;;;5081448;28;20565;-78
2021/08/18 10:25:46;;;;;;;6.53;1.92;;;24.30;66.10;;;;;;5086118;28;20028;-78
2021/08/18 10:28:13;;;;;;;2.42;1.50;;;24.40;65.90;;;;;;5093279;28;20073;-78
2021/08/18 10:30:54;;;;;;;6.88;2.47;;;24.50;65.80;;;;;;5107565;28;20119;-77
2021/08/18 10:33:56;;;;;;;4.28;2.22;;;24.60;65.50;;;;;;5077653;28;20040;-78
2021/08/18 10:36:40;;;;;;;4.47;2.00;;;24.70;65.40;;;;;;5023712;28;20126;-77
2021/08/18 10:39:21;;;;;;;2.47;1.40;;;24.70;65.10;;;;;;5092502;28;20410;-78
2021/08/18 10:42:15;;;;;;;5.32;2.05;;;24.70;64.90;;;;;;5105937;28;20028;-78
2021/08/18 10:44:48;;;;;;;3.38;2.05;;;24.60;64.70;;;;;;5058116;28;20032;-78
2021/08/18 10:47:27;;;;;;;3.35;2.13;;;24.60;64.80;;;;;;5071810;28;20043;-79
2021/08/18 10:50:12;;;;;;;4.22;1.88;;;24.60;64.80;;;;;;5070195;28;20036;-79
2021/08/18 10:52:38;;;;;;;5.68;2.03;;;24.60;64.40;;;;;;5069850;28;20361;-77
2021/08/18 10:55:07;;;;;;;6.63;2.53;;;24.60;64.30;;;;;;5073031;28;20359;-77
2021/08/18 10:57:40;;;;;;;3.97;1.98;;;24.70;64.10;;;;;;5076221;28;20038;-77
2021/08/18 11:00:15;;;;;;;5.68;1.90;;;24.70;63.90;;;;;;5085804;28;20037;-77
2021/08/18 11:02:56;;;;;;;3.92;2.03;;;24.70;63.70;;;;;;5082361;28;20075;-78
2021/08/18 11:05:41;;;;;;;4.68;1.80;;;24.70;63.60;;;;;;5086920;28;20523;-80
2021/08/18 11:08:12;;;;;;;4.72;1.55;;;24.70;63.60;;;;;;5090754;28;20028;-79
2021/08/18 11:10:52;;;;;;;4.60;1.65;;;24.70;63.60;;;;;;5088680;28;20043;-79
2021/08/18 11:13:44;;;;;;;4.55;2.03;;;24.70;63.40;;;;;;5096799;28;20043;-79
2021/08/18 11:16:16;;;;;;;6.50;2.42;;;24.70;63.10;;;;;;5087149;28;20070;-79
2021/08/18 11:18:53;;;;;;;5.63;2.92;;;24.80;63.20;;;;;;5095590;28;20486;-82
2021/08/18 11:21:34;;;;;;;5.75;3.22;;;24.70;62.90;;;;;;5106989;28;20027;-81
2021/08/18 11:24:12;;;;;;;8.48;2.78;;;24.70;62.70;;;;;;5090423;28;20059;-82
2021/08/18 11:26:40;;;;;;;5.95;3.13;;;24.70;62.70;;;;;;5080259;28;20107;-81
2021/08/18 11:29:08;;;;;;;5.13;2.90;;;24.80;62.90;;;;;;5087079;28;20028;-81
2021/08/18 11:31:49;;;;;;;4.85;2.90;;;24.80;62.70;;;;;;5093456;28;20543;-80
2021/08/18 11:34:30;;;;;;;4.38;3.20;;;24.90;62.70;;;;;;5088081;28;20063;-80
2021/08/18 11:37:04;;;;;;;3.95;3.10;;;24.90;62.50;;;;;;5086588;28;20031;-81
2021/08/18 11:39:37;;;;;;;4.80;3.13;;;25.00;62.50;;;;;;5080190;28;20043;-84
2021/08/18 11:42:10;;;;;;;6.85;3.47;;;25.00;62.10;;;;;;5072832;28;20039;-81
2021/08/18 11:44:38;;;;;;;5.90;3.63;;;25.10;61.80;;;;;;5075340;28;20514;-81
2021/08/18 11:47:09;;;;;;;5.95;3.58;;;25.10;61.80;;;;;;5076575;28;20036;-80
2021/08/18 11:49:36;;;;;;;4.55;3.38;;;25.10;61.60;;;;;;5078974;28;20036;-82
2021/08/18 11:52:06;;;;;;;4.13;3.35;;;25.00;61.60;;;;;;5073157;28;20024;-81
2021/08/18 11:54:33;;;;;;;6.63;3.40;;;25.00;61.50;;;;;;5075732;28;20128;-83
2021/08/18 11:57:04;;;;;;;5.15;3.70;;;24.90;61.30;;;;;;5085734;28;20035;-83
2021/08/18 11:59:31;;;;;;;7.18;4.43;;;24.90;61.30;;;;;;5085446;28;20297;-78
2021/08/18 12:01:58;;;;;;;5.63;3.80;;;24.90;61.10;;;;;;5081178;28;20055;-79
2021/08/18 12:04:25;;;;;;;4.95;3.72;;;24.80;60.90;;;;;;5088435;28;20406;-81
2021/08/18 12:07:11;;;;;;;5.78;3.90;;;24.80;60.70;;;;;;5086329;28;20196;-80
2021/08/18 12:09:38;;;;;;;4.63;3.45;;;24.80;60.60;;;;;;5086502;28;20028;-78
2021/08/18 12:12:08;;;;;;;4.60;3.25;;;24.70;60.40;;;;;;5086582;28;20044;-79
2021/08/18 12:14:41;;;;;;;4.13;3.42;;;24.80;60.60;;;;;;5086429;28;20048;-79
2021/08/18 12:17:08;;;;;;;8.43;4.45;;;24.70;60.20;;;;;;5086504;28;20035;-77
2021/08/18 12:19:39;;;;;;;7.85;4.70;;;24.70;60.30;;;;;;5088412;28;20066;-79
2021/08/18 12:22:05;;;;;;;5.47;4.72;;;24.70;60.10;;;;;;5089644;28;20425;-78
2021/08/18 12:24:31;;;;;;;5.65;5.10;;;24.70;60.10;;;;;;5088787;28;20111;-80
2021/08/18 12:27:03;;;;;;;6.10;5.43;;;24.70;60.10;;;;;;5088552;28;20031;-79
2021/08/18 12:29:30;;;;;;;5.55;4.78;;;24.60;59.80;;;;;;5104983;28;20059;-78
2021/08/18 12:32:07;;;;;;;7.30;4.82;;;24.60;60.00;;;;;;5097854;28;20378;-80
2021/08/18 12:34:46;;;;;;;9.63;4.80;;;24.50;59.80;;;;;;5070167;28;20489;-79
2021/08/18 12:37:24;;;;;;;6.35;4.10;;;24.40;59.70;;;;;;5067884;28;20017;-79
2021/08/18 12:40:03;;;;;;;5.15;3.95;;;24.40;59.70;;;;;;5105922;28;20497;-79
2021/08/18 12:42:30;;;;;;;6.05;4.57;;;24.30;59.50;;;;;;5108483;28;20067;-78
2021/08/18 12:45:12;;;;;;;10.48;5.13;;;24.20;59.60;;;;;;5109632;28;20144;-78
2021/08/18 12:47:51;;;;;;;6.32;4.78;;;24.20;59.60;;;;;;5109461;28;20122;-80
2021/08/18 12:50:28;;;;;;;5.60;5.05;;;24.20;59.60;;;;;;5109809;28;20387;-82
2021/08/18 12:52:55;;;;;;;5.88;4.97;;;24.10;59.40;;;;;;5101592;28;20194;-80